createdAt,value
2024-02-29T00:01:37.521Z,20.42
2024-02-29T00:04:39.424Z,17.02
2024-02-29T00:07:41.698Z,19.55
2024-02-29T00:10:43.986Z,19.65
2024-02-29T00:13:46.063Z,18.55
2024-02-29T00:16:49.396Z,19.70
2024-02-29T00:19:51.165Z,18.08
2024-02-29T00:22:52.950Z,16.83
2024-02-29T00:25:54.721Z,17.92
2024-02-29T00:28:56.484Z,18.42
2024-02-29T00:32:02.344Z,18.35
2024-02-29T00:35:06.008Z,20.30
2024-02-29T00:38:07.769Z,19.33
2024-02-29T00:41:09.668Z,19.30
2024-02-29T00:44:11.920Z,19.23
2024-02-29T00:47:15.107Z,17.25
2024-02-29T00:50:16.877Z,18.40
2024-02-29T00:53:18.829Z,19.08
2024-02-29T00:56:20.631Z,17.52
2024-02-29T00:59:22.819Z,17.48
2024-02-29T01:02:26.081Z,18.25
2024-02-29T01:05:28.797Z,19.17
2024-02-29T01:08:30.562Z,15.68
2024-02-29T01:11:32.834Z,17.15
2024-02-29T01:14:34.553Z,19.02
2024-02-29T01:17:38.505Z,17.73
2024-02-29T01:20:40.221Z,19.50
2024-02-29T01:23:42.749Z,18.42
2024-02-29T01:26:44.750Z,21.05
2024-02-29T01:29:46.790Z,19.73
2024-02-29T01:32:50.026Z,18.27
2024-02-29T01:35:51.805Z,20.13
2024-02-29T01:38:53.798Z,18.77
2024-02-29T01:41:57.190Z,18.13
2024-02-29T01:44:58.941Z,17.67
2024-02-29T01:48:03.186Z,18.75
2024-02-29T01:51:05.588Z,19.77
2024-02-29T01:54:07.389Z,19.95
2024-02-29T01:57:10.000Z,20.42
2024-02-29T02:00:12.583Z,20.25
2024-02-29T02:03:16.417Z,20.95
2024-02-29T02:06:18.209Z,19.42
2024-02-29T02:09:20.673Z,20.73
2024-02-29T02:12:22.379Z,20.00
2024-02-29T02:15:24.153Z,20.02
2024-02-29T02:18:28.041Z,20.10
2024-02-29T02:21:31.364Z,20.00
2024-02-29T02:24:34.893Z,19.88
2024-02-29T02:27:38.119Z,20.65
2024-02-29T02:30:39.869Z,21.00
2024-02-29T02:33:42.667Z,22.55
2024-02-29T02:36:45.930Z,22.13
2024-02-29T02:39:48.668Z,21.27
2024-02-29T02:42:50.479Z,22.80
2024-02-29T02:45:52.305Z,22.17
2024-02-29T02:48:54.596Z,22.95
2024-02-29T02:51:57.876Z,20.88
2024-02-29T02:55:00.569Z,21.27
2024-02-29T02:58:02.438Z,17.48
2024-02-29T03:01:04.466Z,19.92
2024-02-29T03:04:06.290Z,17.65
2024-02-29T03:07:09.523Z,21.48
2024-02-29T03:10:12.165Z,18.88
2024-02-29T03:13:14.035Z,18.42
2024-02-29T03:16:21.338Z,19.00
2024-02-29T03:19:23.518Z,19.42
2024-02-29T03:22:26.751Z,17.75
2024-02-29T03:25:28.581Z,20.08
2024-02-29T03:28:30.374Z,16.92
2024-02-29T03:31:32.467Z,18.77
2024-02-29T03:34:34.208Z,19.08
2024-02-29T03:37:38.223Z,17.92
2024-02-29T03:40:40.590Z,20.35
2024-02-29T03:43:42.515Z,21.77
2024-02-29T03:46:44.373Z,19.58
2024-02-29T03:49:46.153Z,18.50
2024-02-29T03:52:49.862Z,18.38
2024-02-29T03:55:51.604Z,17.60
2024-02-29T03:58:54.418Z,19.77
2024-02-29T04:01:57.124Z,20.55
2024-02-29T04:04:59.377Z,19.40
2024-02-29T04:08:05.182Z,19.50
2024-02-29T04:11:06.970Z,17.52
2024-02-29T04:14:10.573Z,16.23
2024-02-29T04:17:12.365Z,17.45
2024-02-29T04:20:14.078Z,18.75
2024-02-29T04:23:17.801Z,20.58
2024-02-29T04:26:19.943Z,20.27
2024-02-29T04:29:22.353Z,18.63
2024-02-29T04:32:24.095Z,19.40
2024-02-29T04:35:26.329Z,20.25
2024-02-29T04:38:29.562Z,19.60
2024-02-29T04:41:31.487Z,17.73
2024-02-29T04:44:33.239Z,17.27
2024-02-29T04:47:35.921Z,16.90
2024-02-29T04:50:38.230Z,18.30
2024-02-29T04:53:41.375Z,17.48
2024-02-29T04:56:43.219Z,18.02
2024-02-29T04:59:45.280Z,18.63
2024-02-29T05:02:47.020Z,19.20
2024-02-29T05:05:49.264Z,19.88
2024-02-29T05:08:52.521Z,18.60
2024-02-29T05:11:55.236Z,17.05
2024-02-29T05:14:57.258Z,17.70
2024-02-29T05:17:59.300Z,20.30
2024-02-29T05:21:01.162Z,17.55
2024-02-29T05:24:04.715Z,18.15
2024-02-29T05:27:06.530Z,18.70
2024-02-29T05:30:08.649Z,16.55
2024-02-29T05:33:11.237Z,17.67
2024-02-29T05:36:15.503Z,17.33
2024-02-29T05:39:18.942Z,15.50
2024-02-29T05:42:22.679Z,18.45
2024-02-29T05:45:25.129Z,18.05
2024-02-29T05:48:27.129Z,18.30
2024-02-29T05:51:28.800Z,16.88
2024-02-29T05:54:32.768Z,17.55
2024-02-29T05:57:36.000Z,18.92
2024-02-29T06:00:38.016Z,20.67
2024-02-29T06:03:39.920Z,20.83
2024-02-29T06:06:41.755Z,22.45
2024-02-29T06:09:45.945Z,23.20
2024-02-29T06:12:47.974Z,23.13
2024-02-29T06:15:50.089Z,23.10
2024-02-29T06:18:51.981Z,24.02
2024-02-29T06:21:53.854Z,20.48
2024-02-29T06:24:58.073Z,21.60
2024-02-29T06:27:59.937Z,20.48
2024-02-29T06:31:02.570Z,20.63
2024-02-29T06:34:04.535Z,18.05
2024-02-29T06:37:08.060Z,17.35
2024-02-29T06:40:13.035Z,20.98
2024-02-29T06:43:15.366Z,20.00
2024-02-29T06:46:18.434Z,21.20
2024-02-29T06:49:21.694Z,20.80
2024-02-29T06:52:23.581Z,22.45
2024-02-29T06:55:26.815Z,22.10
2024-02-29T06:58:29.397Z,22.27
2024-02-29T07:01:34.085Z,25.55
2024-02-29T07:04:35.978Z,43.80
2024-02-29T07:07:37.778Z,51.38
2024-02-29T07:10:42.523Z,50.53
2024-02-29T07:13:44.261Z,52.78
2024-02-29T07:16:47.918Z,53.20
2024-02-29T07:19:49.955Z,56.22
2024-02-29T07:22:52.926Z,55.78
2024-02-29T07:25:56.319Z,56.30
2024-02-29T07:28:58.808Z,56.65
2024-02-29T07:32:00.557Z,30.05
2024-02-29T07:35:02.999Z,29.45
2024-02-29T07:38:05.137Z,26.55
2024-02-29T07:41:08.325Z,26.13
2024-02-29T07:44:10.030Z,26.38
2024-02-29T07:47:11.829Z,25.70
2024-02-29T07:50:13.666Z,24.08
2024-02-29T07:53:15.495Z,22.50
2024-02-29T07:56:19.557Z,20.33
2024-02-29T07:59:23.192Z,18.35
2024-02-29T08:02:25.070Z,20.00
2024-02-29T08:05:27.969Z,22.13
2024-02-29T08:08:29.810Z,21.25
2024-02-29T08:11:33.069Z,20.90
2024-02-29T08:14:35.814Z,20.17
2024-02-29T08:17:37.661Z,21.55
2024-02-29T08:20:39.778Z,22.50
2024-02-29T08:23:41.583Z,21.65
2024-02-29T08:26:44.889Z,21.27
2024-02-29T08:29:46.875Z,20.92
2024-02-29T08:32:50.076Z,22.20
2024-02-29T08:35:52.825Z,22.05
2024-02-29T08:38:54.495Z,21.63
2024-02-29T08:41:58.175Z,21.40
2024-02-29T08:44:59.972Z,21.83
2024-02-29T08:48:01.896Z,23.33
2024-02-29T08:51:05.166Z,26.88
2024-02-29T08:54:09.759Z,24.02
2024-02-29T08:57:14.147Z,25.23
2024-02-29T09:00:18.052Z,27.20
2024-02-29T09:03:19.855Z,25.83
2024-02-29T09:06:21.656Z,25.30
2024-02-29T09:09:23.597Z,24.27
2024-02-29T09:12:26.993Z,22.23
2024-02-29T09:15:29.769Z,23.27
2024-02-29T09:18:31.687Z,24.95
2024-02-29T09:21:33.719Z,26.02
2024-02-29T09:24:35.939Z,27.88
2024-02-29T09:27:39.667Z,24.00
2024-02-29T09:30:41.582Z,21.40
2024-02-29T09:33:43.892Z,21.10
2024-02-29T09:36:47.017Z,21.52
2024-02-29T09:39:48.869Z,26.35
2024-02-29T09:42:53.027Z,21.55
2024-02-29T09:45:55.225Z,20.27
2024-02-29T09:48:59.012Z,20.50
2024-02-29T09:52:01.106Z,19.08
2024-02-29T09:55:06.320Z,18.98
2024-02-29T09:58:09.695Z,18.70
2024-02-29T10:01:12.767Z,17.98
2024-02-29T10:04:14.706Z,17.52
2024-02-29T10:07:16.624Z,20.20
2024-02-29T10:10:18.647Z,19.45
2024-02-29T10:13:22.081Z,17.95
2024-02-29T10:16:27.154Z,19.23
2024-02-29T10:19:30.764Z,23.58
2024-02-29T10:22:32.606Z,19.90
2024-02-29T10:25:34.649Z,20.48
2024-02-29T10:28:37.921Z,21.23
2024-02-29T10:31:40.471Z,18.95
2024-02-29T10:34:42.357Z,18.83
2024-02-29T10:37:44.743Z,20.20
2024-02-29T10:40:48.876Z,19.83
2024-02-29T10:43:52.258Z,20.25
2024-02-29T10:46:57.297Z,21.58
2024-02-29T10:50:04.693Z,20.73
2024-02-29T10:53:13.357Z,20.42
2024-02-29T10:56:21.072Z,18.95
2024-02-29T10:59:25.024Z,20.95
2024-02-29T11:02:27.290Z,24.70
2024-02-29T11:05:29.446Z,23.85
2024-02-29T11:08:31.824Z,25.48
2024-02-29T11:11:34.845Z,26.30
2024-02-29T11:14:38.310Z,23.75
2024-02-29T11:17:42.826Z,22.38
2024-02-29T11:20:45.347Z,23.15
2024-02-29T11:23:47.192Z,21.80
2024-02-29T11:26:55.232Z,23.05
2024-02-29T11:30:01.721Z,22.20
2024-02-29T11:33:10.826Z,17.60
2024-02-29T11:36:13.219Z,17.25
2024-02-29T11:39:16.313Z,18.60
2024-02-29T11:42:18.409Z,17.67
2024-02-29T11:45:23.517Z,18.30
2024-02-29T11:48:27.785Z,18.08
2024-02-29T11:51:29.826Z,18.52
2024-02-29T11:54:32.332Z,17.42
2024-02-29T11:57:34.281Z,17.55
2024-02-29T12:00:37.580Z,17.15
2024-02-29T12:03:41.108Z,15.70
2024-02-29T12:06:45.342Z,16.73
2024-02-29T12:09:47.453Z,17.60
2024-02-29T12:12:50.572Z,17.33
2024-02-29T12:15:55.558Z,15.98
2024-02-29T12:18:58.283Z,14.85
2024-02-29T12:22:00.115Z,13.55
2024-02-29T12:25:12.544Z,15.30
2024-02-29T12:28:14.743Z,15.32
2024-02-29T12:31:19.342Z,15.93
2024-02-29T12:34:21.215Z,14.85
2024-02-29T12:37:23.569Z,15.57
2024-02-29T12:40:27.091Z,14.45
2024-02-29T12:43:29.651Z,14.63
2024-02-29T12:46:32.978Z,14.40
2024-02-29T12:49:35.141Z,14.35
2024-02-29T12:52:37.230Z,14.45
2024-02-29T12:55:39.097Z,14.70
2024-02-29T12:58:42.334Z,15.32
2024-02-29T13:01:46.230Z,13.30
2024-02-29T13:04:48.156Z,10.85
2024-02-29T13:07:50.588Z,10.20
2024-02-29T13:10:53.087Z,11.57
2024-02-29T13:13:54.876Z,10.38
2024-02-29T13:16:58.152Z,9.98
2024-02-29T13:20:00.234Z,9.02
2024-02-29T13:23:02.224Z,9.63
2024-02-29T13:26:05.344Z,9.18
2024-02-29T13:29:07.268Z,9.10
2024-02-29T13:32:10.538Z,8.50
2024-02-29T13:35:13.102Z,9.35
2024-02-29T13:38:14.931Z,9.43
2024-02-29T13:41:17.056Z,8.82
2024-02-29T13:44:19.998Z,9.20
2024-02-29T13:47:23.329Z,9.48
2024-02-29T13:50:25.936Z,8.43
2024-02-29T13:53:27.691Z,8.88
2024-02-29T13:56:29.512Z,9.70
2024-02-29T13:59:31.992Z,8.30
2024-02-29T14:02:35.196Z,8.88
2024-02-29T14:05:37.975Z,9.18
2024-02-29T14:08:40.223Z,8.45
2024-02-29T14:11:43.782Z,9.63
2024-02-29T14:14:46.572Z,9.63
2024-02-29T14:17:49.908Z,8.43
2024-02-29T14:20:51.717Z,9.93
2024-02-29T14:23:53.910Z,9.63
2024-02-29T14:26:55.803Z,9.80
2024-02-29T14:30:00.857Z,8.50
2024-02-29T14:33:05.328Z,9.18
2024-02-29T14:36:13.018Z,9.10
2024-02-29T14:39:15.358Z,8.63
2024-02-29T14:42:18.392Z,8.88
2024-02-29T14:45:20.991Z,8.82
2024-02-29T14:48:24.237Z,9.32
2024-02-29T14:51:26.899Z,9.80
2024-02-29T14:54:28.694Z,10.35
2024-02-29T14:57:30.840Z,10.85
2024-02-29T15:00:32.680Z,9.15
2024-02-29T15:03:37.152Z,9.48
2024-02-29T15:06:41.267Z,10.40
2024-02-29T15:09:43.266Z,11.73
2024-02-29T15:12:46.064Z,10.65
2024-02-29T15:15:47.923Z,9.82
2024-02-29T15:18:51.239Z,10.00
2024-02-29T15:21:54.241Z,9.32
2024-02-29T15:24:56.111Z,9.13
2024-02-29T15:28:00.233Z,9.15
2024-02-29T15:31:02.070Z,8.63
2024-02-29T15:34:05.245Z,10.60
2024-02-29T15:37:08.139Z,10.23
2024-02-29T15:40:12.052Z,11.13
2024-02-29T15:43:14.750Z,9.77
2024-02-29T15:46:16.686Z,11.38
2024-02-29T15:49:20.260Z,10.93
2024-02-29T15:52:22.186Z,11.77
2024-02-29T15:55:24.758Z,10.48
2024-02-29T15:58:26.564Z,11.48
2024-02-29T16:01:28.598Z,11.45
2024-02-29T16:04:32.630Z,11.35
2024-02-29T16:07:34.676Z,11.18
2024-02-29T16:10:36.412Z,11.38
2024-02-29T16:13:39.354Z,11.63
2024-02-29T16:16:41.142Z,10.50
2024-02-29T16:19:46.703Z,11.63
2024-02-29T16:22:49.146Z,10.68
2024-02-29T16:25:52.957Z,12.38
2024-02-29T16:28:55.349Z,12.02
2024-02-29T16:31:57.093Z,11.48
2024-02-29T16:35:00.494Z,12.15
2024-02-29T16:38:02.367Z,12.45
2024-02-29T16:41:04.750Z,12.48
2024-02-29T16:44:06.622Z,11.30
2024-02-29T16:47:08.545Z,12.15
2024-02-29T16:50:12.527Z,11.57
2024-02-29T16:53:14.363Z,11.82
2024-02-29T16:56:16.508Z,12.05
2024-02-29T16:59:18.253Z,12.07
2024-02-29T17:02:20.140Z,13.30
2024-02-29T17:05:24.319Z,12.00
2024-02-29T17:08:25.988Z,12.23
2024-02-29T17:11:27.802Z,11.82
2024-02-29T17:14:29.565Z,13.40
2024-02-29T17:17:31.520Z,12.73
2024-02-29T17:20:34.770Z,12.95
2024-02-29T17:23:37.443Z,14.45
2024-02-29T17:26:39.230Z,13.23
2024-02-29T17:29:43.503Z,14.00
2024-02-29T17:32:48.203Z,14.95
2024-02-29T17:35:51.384Z,15.65
2024-02-29T17:38:53.109Z,15.35
2024-02-29T17:41:55.400Z,16.67
2024-02-29T17:44:57.222Z,18.05
2024-02-29T17:47:59.409Z,15.27
2024-02-29T17:51:02.635Z,16.67
2024-02-29T17:54:04.411Z,18.25
2024-02-29T17:57:06.407Z,17.15
2024-02-29T18:00:09.170Z,17.20
2024-02-29T18:03:11.417Z,17.65
2024-02-29T18:06:14.995Z,18.45
2024-02-29T18:09:17.084Z,18.95
2024-02-29T18:12:19.385Z,19.88
2024-02-29T18:15:21.340Z,19.15
2024-02-29T18:18:23.110Z,20.00
2024-02-29T18:21:26.222Z,21.60
2024-02-29T18:24:29.411Z,21.05
2024-02-29T18:27:31.291Z,20.55
2024-02-29T18:30:33.132Z,22.90
2024-02-29T18:33:35.473Z,20.83
2024-02-29T18:36:39.035Z,22.98
2024-02-29T18:39:41.508Z,24.67
2024-02-29T18:42:43.942Z,24.00
2024-02-29T18:45:53.279Z,23.38
2024-02-29T18:48:59.598Z,21.63
2024-02-29T18:52:03.809Z,20.65
2024-02-29T18:55:09.099Z,23.83
2024-02-29T18:58:11.030Z,22.38
2024-02-29T19:01:13.314Z,24.35
2024-02-29T19:04:16.446Z,23.27
2024-02-29T19:07:21.797Z,23.50
2024-02-29T19:10:25.865Z,23.45
2024-02-29T19:13:29.527Z,24.90
2024-02-29T19:16:32.271Z,23.40
2024-02-29T19:19:34.342Z,24.42
2024-02-29T19:22:38.441Z,25.02
2024-02-29T19:25:44.085Z,23.48
2024-02-29T19:28:45.879Z,22.70
2024-02-29T19:31:47.905Z,22.02
2024-02-29T19:34:50.185Z,23.30
2024-02-29T19:37:54.354Z,22.35
2024-02-29T19:40:57.127Z,25.17
2024-02-29T19:43:59.000Z,24.67
2024-02-29T19:47:02.081Z,22.95
2024-02-29T19:50:04.099Z,23.98
2024-02-29T19:53:07.491Z,25.95
2024-02-29T19:56:10.869Z,23.65
2024-02-29T19:59:12.712Z,25.38
2024-02-29T20:02:15.238Z,25.55
2024-02-29T20:05:17.048Z,24.30
2024-02-29T20:08:20.146Z,25.42
2024-02-29T20:11:22.162Z,27.23
2024-02-29T20:14:24.094Z,27.25
2024-02-29T20:17:25.853Z,25.13
2024-02-29T20:20:28.013Z,24.88
2024-02-29T20:23:31.239Z,24.23
2024-02-29T20:26:34.116Z,24.98
2024-02-29T20:29:35.931Z,24.52
2024-02-29T20:32:40.381Z,25.48
2024-02-29T20:35:43.114Z,24.60
2024-02-29T20:38:46.912Z,24.17
2024-02-29T20:41:49.001Z,24.30
2024-02-29T20:44:52.341Z,25.60
2024-02-29T20:47:54.230Z,26.08
2024-02-29T20:50:56.975Z,25.95
2024-02-29T20:54:00.285Z,27.55
2024-02-29T20:57:03.170Z,27.17
2024-02-29T21:00:05.685Z,27.67
2024-02-29T21:03:09.172Z,20.05
2024-02-29T21:06:12.022Z,20.73
2024-02-29T21:09:15.236Z,20.65
2024-02-29T21:12:17.000Z,20.60
2024-02-29T21:15:18.853Z,18.73
2024-02-29T21:18:20.682Z,19.75
2024-02-29T21:21:22.859Z,21.02
2024-02-29T21:24:26.246Z,22.70
2024-02-29T21:27:28.880Z,19.75
2024-02-29T21:30:30.723Z,20.58
2024-02-29T21:33:32.861Z,19.95
2024-02-29T21:36:34.649Z,20.13
2024-02-29T21:39:44.427Z,22.65
2024-02-29T21:42:48.804Z,20.25
2024-02-29T21:45:50.624Z,22.13
2024-02-29T21:48:52.395Z,19.67
2024-02-29T21:51:54.788Z,20.65
2024-02-29T21:54:58.025Z,23.40
2024-02-29T21:58:01.786Z,22.38
2024-02-29T22:01:03.978Z,22.08
2024-02-29T22:04:05.831Z,21.88
2024-02-29T22:07:08.136Z,21.45
2024-02-29T22:10:11.719Z,22.25
2024-02-29T22:13:13.651Z,23.40
2024-02-29T22:16:15.765Z,21.90
2024-02-29T22:19:17.570Z,23.30
2024-02-29T22:22:19.804Z,21.30
2024-02-29T22:25:23.172Z,22.00
2024-02-29T22:28:25.159Z,23.58
2024-02-29T22:31:29.190Z,24.23
2024-02-29T22:34:31.103Z,24.45
2024-02-29T22:37:34.457Z,22.40
2024-02-29T22:40:37.749Z,23.90
2024-02-29T22:43:39.724Z,25.42
2024-02-29T22:46:41.493Z,23.75
2024-02-29T22:49:44.066Z,24.65
2024-02-29T22:52:45.773Z,24.52
2024-02-29T22:55:51.329Z,24.35
2024-02-29T22:58:53.704Z,25.75
2024-02-29T23:01:56.193Z,23.23
2024-02-29T23:04:58.015Z,24.77
2024-02-29T23:07:59.731Z,22.83
2024-02-29T23:11:04.285Z,23.58
2024-02-29T23:14:06.595Z,24.70
2024-02-29T23:17:08.363Z,24.45
2024-02-29T23:20:13.637Z,26.13
2024-02-29T23:23:15.423Z,27.27
2024-02-29T23:26:18.757Z,23.45
2024-02-29T23:29:20.944Z,24.23
2024-02-29T23:32:23.570Z,26.33
2024-02-29T23:35:25.295Z,27.05
2024-02-29T23:38:27.053Z,25.45
2024-02-29T23:41:30.978Z,28.00
2024-02-29T23:44:32.715Z,25.17
2024-02-29T23:47:34.540Z,28.17
2024-02-29T23:50:36.332Z,28.08
2024-02-29T23:53:38.541Z,26.02
2024-02-29T23:56:41.930Z,25.85
2024-02-29T23:59:44.484Z,27.23
